sensor_id;sensor_type;location;lat;lon;timestamp;temperature;humidity
24638;DHT22;12773;50.162;8.548;2022-11-25T00:04:05;5.00;99.90
24638;DHT22;12773;50.162;8.548;2022-11-25T00:06:52;4.90;99.90
24638;DHT22;12773;50.162;8.548;2022-11-25T00:09:40;4.80;99.90
24638;DHT22;12773;50.162;8.548;2022-11-25T00:12:27;4.80;99.90
24638;DHT22;12773;50.162;8.548;2022-11-25T00:15:14;4.80;99.90
24638;DHT22;12773;50.162;8.548;2022-11-25T00:18:01;4.70;99.90
24638;DHT22;12773;50.162;8.548;2022-11-25T00:20:49;4.80;99.90
24638;DHT22;12773;50.162;8.548;2022-11-25T00:23:37;4.80;99.90
24638;DHT22;12773;50.162;8.548;2022-11-25T00:26:26;4.80;99.90
24638;DHT22;12773;50.162;8.548;2022-11-25T00:29:13;4.70;99.90
24638;DHT22;12773;50.162;8.548;2022-11-25T00:32:01;4.80;99.90
24638;DHT22;12773;50.162;8.548;2022-11-25T00:34:48;4.90;99.90
24638;DHT22;12773;50.162;8.548;2022-11-25T00:37:36;5.20;99.90
24638;DHT22;12773;50.162;8.548;2022-11-25T00:40:23;5.40;99.90
24638;DHT22;12773;50.162;8.548;2022-11-25T00:43:12;5.60;99.90
24638;DHT22;12773;50.162;8.548;2022-11-25T00:46:17;5.70;99.90
24638;DHT22;12773;50.162;8.548;2022-11-25T00:49:05;5.70;99.90
24638;DHT22;12773;50.162;8.548;2022-11-25T00:51:53;5.70;99.90
24638;DHT22;12773;50.162;8.548;2022-11-25T00:54:40;5.70;99.90
24638;DHT22;12773;50.162;8.548;2022-11-25T00:57:30;5.70;99.90
24638;DHT22;12773;50.162;8.548;2022-11-25T01:00:17;5.80;99.90
24638;DHT22;12773;50.162;8.548;2022-11-25T01:03:04;5.70;99.90
24638;DHT22;12773;50.162;8.548;2022-11-25T01:05:52;5.70;99.90
24638;DHT22;12773;50.162;8.548;2022-11-25T01:08:39;5.90;99.90
24638;DHT22;12773;50.162;8.548;2022-11-25T01:11:27;5.90;99.90
24638;DHT22;12773;50.162;8.548;2022-11-25T01:14:14;5.90;99.90
24638;DHT22;12773;50.162;8.548;2022-11-25T01:17:02;6.00;99.90
24638;DHT22;12773;50.162;8.548;2022-11-25T01:19:49;6.00;99.90
24638;DHT22;12773;50.162;8.548;2022-11-25T01:22:36;6.10;99.90
24638;DHT22;12773;50.162;8.548;2022-11-25T01:25:24;6.20;99.90
24638;DHT22;12773;50.162;8.548;2022-11-25T01:28:11;6.30;99.90
24638;DHT22;12773;50.162;8.548;2022-11-25T01:31:05;6.40;99.90
24638;DHT22;12773;50.162;8.548;2022-11-25T01:33:55;6.60;99.90
24638;DHT22;12773;50.162;8.548;2022-11-25T01:36:43;6.80;99.90
24638;DHT22;12773;50.162;8.548;2022-11-25T01:39:30;6.70;99.90
24638;DHT22;12773;50.162;8.548;2022-11-25T01:42:19;6.80;99.90
24638;DHT22;12773;50.162;8.548;2022-11-25T01:45:27;6.80;99.90
24638;DHT22;12773;50.162;8.548;2022-11-25T01:48:28;6.90;99.90
24638;DHT22;12773;50.162;8.548;2022-11-25T01:51:40;7.00;99.90
24638;DHT22;12773;50.162;8.548;2022-11-25T01:54:27;7.00;99.90
24638;DHT22;12773;50.162;8.548;2022-11-25T01:57:18;6.90;99.90
24638;DHT22;12773;50.162;8.548;2022-11-25T02:00:07;6.90;99.90
24638;DHT22;12773;50.162;8.548;2022-11-25T02:02:56;7.00;99.90
24638;DHT22;12773;50.162;8.548;2022-11-25T02:05:55;7.10;99.90
24638;DHT22;12773;50.162;8.548;2022-11-25T02:08:42;7.30;99.90
24638;DHT22;12773;50.162;8.548;2022-11-25T02:11:32;7.30;99.90
24638;DHT22;12773;50.162;8.548;2022-11-25T02:14:21;7.30;99.90
24638;DHT22;12773;50.162;8.548;2022-11-25T02:17:09;7.40;99.90
24638;DHT22;12773;50.162;8.548;2022-11-25T02:20:06;7.30;99.90
24638;DHT22;12773;50.162;8.548;2022-11-25T02:23:13;7.40;99.90
24638;DHT22;12773;50.162;8.548;2022-11-25T02:26:00;7.40;99.90
24638;DHT22;12773;50.162;8.548;2022-11-25T02:28:47;7.50;99.90
24638;DHT22;12773;50.162;8.548;2022-11-25T02:31:35;7.50;99.90
24638;DHT22;12773;50.162;8.548;2022-11-25T02:34:22;7.50;99.90
24638;DHT22;12773;50.162;8.548;2022-11-25T02:37:09;7.60;99.90
24638;DHT22;12773;50.162;8.548;2022-11-25T02:39:57;7.50;99.90
24638;DHT22;12773;50.162;8.548;2022-11-25T02:42:44;7.50;99.90
24638;DHT22;12773;50.162;8.548;2022-11-25T02:45:36;7.40;99.90
24638;DHT22;12773;50.162;8.548;2022-11-25T02:48:23;7.20;99.90
24638;DHT22;12773;50.162;8.548;2022-11-25T02:51:15;7.10;99.90
24638;DHT22;12773;50.162;8.548;2022-11-25T02:54:03;7.20;99.90
24638;DHT22;12773;50.162;8.548;2022-11-25T02:56:51;7.20;99.90
24638;DHT22;12773;50.162;8.548;2022-11-25T02:59:39;7.10;99.90
24638;DHT22;12773;50.162;8.548;2022-11-25T03:02:26;6.90;99.90
24638;DHT22;12773;50.162;8.548;2022-11-25T03:05:13;6.80;99.90
24638;DHT22;12773;50.162;8.548;2022-11-25T03:08:02;6.70;99.90
24638;DHT22;12773;50.162;8.548;2022-11-25T03:10:49;6.60;99.90
24638;DHT22;12773;50.162;8.548;2022-11-25T03:13:37;6.50;99.90
24638;DHT22;12773;50.162;8.548;2022-11-25T03:16:24;6.40;99.90
24638;DHT22;12773;50.162;8.548;2022-11-25T03:19:12;6.40;99.90
24638;DHT22;12773;50.162;8.548;2022-11-25T03:21:59;6.30;99.90
24638;DHT22;12773;50.162;8.548;2022-11-25T03:24:46;6.30;99.90
24638;DHT22;12773;50.162;8.548;2022-11-25T03:27:34;6.40;99.90
24638;DHT22;12773;50.162;8.548;2022-11-25T03:30:24;6.30;99.90
24638;DHT22;12773;50.162;8.548;2022-11-25T03:33:12;6.30;99.90
24638;DHT22;12773;50.162;8.548;2022-11-25T03:35:59;6.50;99.90
24638;DHT22;12773;50.162;8.548;2022-11-25T03:38:46;6.50;99.90
24638;DHT22;12773;50.162;8.548;2022-11-25T03:41:34;6.50;99.90
24638;DHT22;12773;50.162;8.548;2022-11-25T03:44:22;6.70;99.90
24638;DHT22;12773;50.162;8.548;2022-11-25T03:47:10;6.60;99.90
24638;DHT22;12773;50.162;8.548;2022-11-25T03:49:58;6.70;99.90
24638;DHT22;12773;50.162;8.548;2022-11-25T03:52:45;6.80;99.90
24638;DHT22;12773;50.162;8.548;2022-11-25T03:55:33;6.80;99.90
24638;DHT22;12773;50.162;8.548;2022-11-25T03:58:20;6.80;99.90
24638;DHT22;12773;50.162;8.548;2022-11-25T04:01:07;6.80;99.90
24638;DHT22;12773;50.162;8.548;2022-11-25T04:03:55;6.80;99.90
24638;DHT22;12773;50.162;8.548;2022-11-25T04:06:42;6.70;99.90
24638;DHT22;12773;50.162;8.548;2022-11-25T04:09:29;6.70;99.90
24638;DHT22;12773;50.162;8.548;2022-11-25T04:12:17;6.70;99.90
24638;DHT22;12773;50.162;8.548;2022-11-25T04:15:22;6.80;99.90
24638;DHT22;12773;50.162;8.548;2022-11-25T04:18:09;6.90;99.90
24638;DHT22;12773;50.162;8.548;2022-11-25T04:20:57;7.00;99.90
24638;DHT22;12773;50.162;8.548;2022-11-25T04:23:44;7.10;99.90
24638;DHT22;12773;50.162;8.548;2022-11-25T04:26:31;7.20;99.90
24638;DHT22;12773;50.162;8.548;2022-11-25T04:29:19;7.30;99.90
24638;DHT22;12773;50.162;8.548;2022-11-25T04:32:06;7.30;99.90
24638;DHT22;12773;50.162;8.548;2022-11-25T04:34:54;7.30;99.90
24638;DHT22;12773;50.162;8.548;2022-11-25T04:37:41;7.30;99.90
24638;DHT22;12773;50.162;8.548;2022-11-25T04:40:28;7.40;99.90
24638;DHT22;12773;50.162;8.548;2022-11-25T04:43:16;7.40;99.90
24638;DHT22;12773;50.162;8.548;2022-11-25T04:46:03;7.30;99.90
24638;DHT22;12773;50.162;8.548;2022-11-25T04:48:52;7.30;99.90
24638;DHT22;12773;50.162;8.548;2022-11-25T04:51:40;7.40;99.90
24638;DHT22;12773;50.162;8.548;2022-11-25T04:54:27;7.50;99.90
24638;DHT22;12773;50.162;8.548;2022-11-25T04:57:15;7.40;99.90
24638;DHT22;12773;50.162;8.548;2022-11-25T05:00:03;7.40;99.90
24638;DHT22;12773;50.162;8.548;2022-11-25T05:02:51;7.40;99.90
24638;DHT22;12773;50.162;8.548;2022-11-25T05:05:38;7.40;99.90
24638;DHT22;12773;50.162;8.548;2022-11-25T05:08:26;7.50;99.90
24638;DHT22;12773;50.162;8.548;2022-11-25T05:11:13;7.60;99.90
24638;DHT22;12773;50.162;8.548;2022-11-25T05:14:00;7.60;99.90
24638;DHT22;12773;50.162;8.548;2022-11-25T05:16:48;7.60;99.90
24638;DHT22;12773;50.162;8.548;2022-11-25T05:19:35;7.60;99.90
24638;DHT22;12773;50.162;8.548;2022-11-25T05:22:26;7.70;99.90
24638;DHT22;12773;50.162;8.548;2022-11-25T05:25:13;7.80;99.90
24638;DHT22;12773;50.162;8.548;2022-11-25T05:28:02;7.80;99.90
24638;DHT22;12773;50.162;8.548;2022-11-25T05:30:49;7.90;99.90
24638;DHT22;12773;50.162;8.548;2022-11-25T05:33:37;7.80;99.90
24638;DHT22;12773;50.162;8.548;2022-11-25T05:36:24;7.80;99.90
24638;DHT22;12773;50.162;8.548;2022-11-25T05:39:11;7.80;99.90
24638;DHT22;12773;50.162;8.548;2022-11-25T05:41:59;7.90;99.90
24638;DHT22;12773;50.162;8.548;2022-11-25T05:44:46;7.90;99.90
24638;DHT22;12773;50.162;8.548;2022-11-25T05:47:33;7.70;99.90
24638;DHT22;12773;50.162;8.548;2022-11-25T05:50:21;7.80;99.90
24638;DHT22;12773;50.162;8.548;2022-11-25T05:53:08;7.80;99.90
24638;DHT22;12773;50.162;8.548;2022-11-25T05:55:59;7.80;99.90
24638;DHT22;12773;50.162;8.548;2022-11-25T05:58:46;7.90;99.90
24638;DHT22;12773;50.162;8.548;2022-11-25T06:01:34;8.00;99.90
24638;DHT22;12773;50.162;8.548;2022-11-25T06:04:21;8.10;99.90
24638;DHT22;12773;50.162;8.548;2022-11-25T06:07:08;8.00;99.90
24638;DHT22;12773;50.162;8.548;2022-11-25T06:09:56;8.00;99.90
24638;DHT22;12773;50.162;8.548;2022-11-25T06:12:44;8.00;99.90
24638;DHT22;12773;50.162;8.548;2022-11-25T06:15:32;8.10;99.90
24638;DHT22;12773;50.162;8.548;2022-11-25T06:18:19;8.20;99.90
24638;DHT22;12773;50.162;8.548;2022-11-25T06:21:08;8.30;99.90
24638;DHT22;12773;50.162;8.548;2022-11-25T06:23:56;8.20;99.90
24638;DHT22;12773;50.162;8.548;2022-11-25T06:26:43;8.20;99.90
24638;DHT22;12773;50.162;8.548;2022-11-25T06:29:31;8.20;99.90
24638;DHT22;12773;50.162;8.548;2022-11-25T06:32:18;8.30;99.90
24638;DHT22;12773;50.162;8.548;2022-11-25T06:35:06;8.30;99.90
24638;DHT22;12773;50.162;8.548;2022-11-25T06:37:53;8.20;99.90
24638;DHT22;12773;50.162;8.548;2022-11-25T06:40:40;8.10;99.90
24638;DHT22;12773;50.162;8.548;2022-11-25T06:43:28;8.00;99.90
24638;DHT22;12773;50.162;8.548;2022-11-25T06:46:18;7.90;99.90
24638;DHT22;12773;50.162;8.548;2022-11-25T06:49:07;8.00;99.90
24638;DHT22;12773;50.162;8.548;2022-11-25T06:51:54;8.00;99.90
24638;DHT22;12773;50.162;8.548;2022-11-25T06:54:41;8.10;99.90
24638;DHT22;12773;50.162;8.548;2022-11-25T06:57:28;8.20;99.90
24638;DHT22;12773;50.162;8.548;2022-11-25T07:00:16;8.30;99.90
24638;DHT22;12773;50.162;8.548;2022-11-25T07:03:04;8.50;99.90
24638;DHT22;12773;50.162;8.548;2022-11-25T07:05:54;8.60;99.90
24638;DHT22;12773;50.162;8.548;2022-11-25T07:08:40;8.40;99.90
24638;DHT22;12773;50.162;8.548;2022-11-25T07:11:38;8.20;99.90
24638;DHT22;12773;50.162;8.548;2022-11-25T07:14:22;8.20;99.90
24638;DHT22;12773;50.162;8.548;2022-11-25T07:17:09;8.20;99.90
24638;DHT22;12773;50.162;8.548;2022-11-25T07:19:58;8.30;99.90
24638;DHT22;12773;50.162;8.548;2022-11-25T07:22:45;8.30;99.90
24638;DHT22;12773;50.162;8.548;2022-11-25T07:25:32;8.50;99.90
24638;DHT22;12773;50.162;8.548;2022-11-25T07:28:20;8.40;99.90
24638;DHT22;12773;50.162;8.548;2022-11-25T07:31:15;8.40;99.90
24638;DHT22;12773;50.162;8.548;2022-11-25T07:36:58;8.60;99.90
24638;DHT22;12773;50.162;8.548;2022-11-25T07:39:45;8.50;99.90
24638;DHT22;12773;50.162;8.548;2022-11-25T07:42:33;8.40;99.90
24638;DHT22;12773;50.162;8.548;2022-11-25T07:45:20;8.20;99.90
24638;DHT22;12773;50.162;8.548;2022-11-25T07:48:09;8.10;99.90
24638;DHT22;12773;50.162;8.548;2022-11-25T07:50:57;8.00;99.90
24638;DHT22;12773;50.162;8.548;2022-11-25T07:53:45;8.10;99.90
24638;DHT22;12773;50.162;8.548;2022-11-25T07:56:34;8.10;99.90
24638;DHT22;12773;50.162;8.548;2022-11-25T07:59:23;8.10;99.90
24638;DHT22;12773;50.162;8.548;2022-11-25T08:02:10;8.10;99.90
24638;DHT22;12773;50.162;8.548;2022-11-25T08:04:58;8.00;99.90
24638;DHT22;12773;50.162;8.548;2022-11-25T08:07:45;7.90;99.90
24638;DHT22;12773;50.162;8.548;2022-11-25T08:10:32;7.90;99.90
24638;DHT22;12773;50.162;8.548;2022-11-25T08:13:20;8.00;99.90
24638;DHT22;12773;50.162;8.548;2022-11-25T08:16:07;8.10;99.90
24638;DHT22;12773;50.162;8.548;2022-11-25T08:18:55;8.10;99.90
24638;DHT22;12773;50.162;8.548;2022-11-25T08:21:43;8.00;99.90
24638;DHT22;12773;50.162;8.548;2022-11-25T08:24:32;8.00;99.90
24638;DHT22;12773;50.162;8.548;2022-11-25T08:27:20;8.00;99.90
24638;DHT22;12773;50.162;8.548;2022-11-25T08:30:07;7.90;99.90
24638;DHT22;12773;50.162;8.548;2022-11-25T08:32:55;7.90;99.90
24638;DHT22;12773;50.162;8.548;2022-11-25T08:35:43;7.90;99.90
24638;DHT22;12773;50.162;8.548;2022-11-25T08:38:32;8.00;99.90
24638;DHT22;12773;50.162;8.548;2022-11-25T08:41:22;8.10;99.90
24638;DHT22;12773;50.162;8.548;2022-11-25T08:44:10;8.10;99.90
24638;DHT22;12773;50.162;8.548;2022-11-25T08:46:59;8.30;99.90
24638;DHT22;12773;50.162;8.548;2022-11-25T08:49:51;8.40;99.90
24638;DHT22;12773;50.162;8.548;2022-11-25T08:52:39;8.40;99.90
24638;DHT22;12773;50.162;8.548;2022-11-25T08:55:27;8.60;99.90
24638;DHT22;12773;50.162;8.548;2022-11-25T08:58:15;8.50;99.90
24638;DHT22;12773;50.162;8.548;2022-11-25T09:01:03;8.60;99.90
24638;DHT22;12773;50.162;8.548;2022-11-25T09:03:52;8.70;99.90
24638;DHT22;12773;50.162;8.548;2022-11-25T09:06:40;8.90;99.90
24638;DHT22;12773;50.162;8.548;2022-11-25T09:09:28;9.00;99.90
24638;DHT22;12773;50.162;8.548;2022-11-25T09:12:15;9.10;99.90
24638;DHT22;12773;50.162;8.548;2022-11-25T09:15:03;9.20;99.90
24638;DHT22;12773;50.162;8.548;2022-11-25T09:18:03;9.30;99.90
24638;DHT22;12773;50.162;8.548;2022-11-25T09:20:46;9.50;99.90
24638;DHT22;12773;50.162;8.548;2022-11-25T09:23:34;9.60;99.90
24638;DHT22;12773;50.162;8.548;2022-11-25T09:26:27;9.70;99.90
24638;DHT22;12773;50.162;8.548;2022-11-25T09:29:15;9.80;99.90
24638;DHT22;12773;50.162;8.548;2022-11-25T09:32:02;9.90;99.90
24638;DHT22;12773;50.162;8.548;2022-11-25T09:34:50;9.90;99.90
24638;DHT22;12773;50.162;8.548;2022-11-25T09:37:38;9.80;99.90
24638;DHT22;12773;50.162;8.548;2022-11-25T09:43:56;9.70;99.90
24638;DHT22;12773;50.162;8.548;2022-11-25T09:47:02;9.70;99.90
24638;DHT22;12773;50.162;8.548;2022-11-25T09:50:09;9.70;99.90
24638;DHT22;12773;50.162;8.548;2022-11-25T09:56:08;9.70;99.90
24638;DHT22;12773;50.162;8.548;2022-11-25T09:59:18;9.80;99.90
24638;DHT22;12773;50.162;8.548;2022-11-25T10:02:16;9.80;99.90
24638;DHT22;12773;50.162;8.548;2022-11-25T10:05:11;9.50;99.90
24638;DHT22;12773;50.162;8.548;2022-11-25T10:08:02;9.40;99.90
24638;DHT22;12773;50.162;8.548;2022-11-25T10:11:06;9.50;99.90
24638;DHT22;12773;50.162;8.548;2022-11-25T10:13:54;9.50;99.90
24638;DHT22;12773;50.162;8.548;2022-11-25T10:16:50;9.50;99.90
24638;DHT22;12773;50.162;8.548;2022-11-25T10:23:11;9.40;99.90
24638;DHT22;12773;50.162;8.548;2022-11-25T10:26:02;9.50;99.90
24638;DHT22;12773;50.162;8.548;2022-11-25T10:28:52;9.60;99.90
24638;DHT22;12773;50.162;8.548;2022-11-25T10:31:42;9.60;99.90
24638;DHT22;12773;50.162;8.548;2022-11-25T10:34:35;9.40;99.90
24638;DHT22;12773;50.162;8.548;2022-11-25T10:37:29;9.40;99.90
24638;DHT22;12773;50.162;8.548;2022-11-25T10:40:17;9.40;99.90
24638;DHT22;12773;50.162;8.548;2022-11-25T10:43:12;9.40;99.90
24638;DHT22;12773;50.162;8.548;2022-11-25T10:46:21;9.30;99.90
24638;DHT22;12773;50.162;8.548;2022-11-25T10:49:28;9.30;99.90
24638;DHT22;12773;50.162;8.548;2022-11-25T10:52:19;9.40;99.90
24638;DHT22;12773;50.162;8.548;2022-11-25T10:55:12;9.40;99.90
24638;DHT22;12773;50.162;8.548;2022-11-25T10:58:19;9.70;99.90
24638;DHT22;12773;50.162;8.548;2022-11-25T11:01:00;10.00;99.90
24638;DHT22;12773;50.162;8.548;2022-11-25T11:03:45;10.40;99.90
24638;DHT22;12773;50.162;8.548;2022-11-25T11:06:35;10.80;99.90
24638;DHT22;12773;50.162;8.548;2022-11-25T11:09:39;10.70;99.90
24638;DHT22;12773;50.162;8.548;2022-11-25T11:12:28;11.10;99.90
24638;DHT22;12773;50.162;8.548;2022-11-25T11:15:21;11.40;99.90
24638;DHT22;12773;50.162;8.548;2022-11-25T11:18:26;11.50;99.90
24638;DHT22;12773;50.162;8.548;2022-11-25T11:21:28;11.40;99.90
24638;DHT22;12773;50.162;8.548;2022-11-25T11:24:31;11.50;99.90
24638;DHT22;12773;50.162;8.548;2022-11-25T11:27:23;11.60;99.90
24638;DHT22;12773;50.162;8.548;2022-11-25T11:30:16;11.30;99.90
24638;DHT22;12773;50.162;8.548;2022-11-25T11:39:33;10.90;99.90
24638;DHT22;12773;50.162;8.548;2022-11-25T11:42:24;11.10;99.90
24638;DHT22;12773;50.162;8.548;2022-11-25T12:00:20;11.90;99.90
24638;DHT22;12773;50.162;8.548;2022-11-25T12:03:16;11.90;99.90
24638;DHT22;12773;50.162;8.548;2022-11-25T12:06:05;12.00;99.90
24638;DHT22;12773;50.162;8.548;2022-11-25T12:08:59;11.90;99.90
24638;DHT22;12773;50.162;8.548;2022-11-25T12:11:51;12.10;99.90
24638;DHT22;12773;50.162;8.548;2022-11-25T12:14:46;12.00;99.90
24638;DHT22;12773;50.162;8.548;2022-11-25T12:17:42;11.70;99.90
24638;DHT22;12773;50.162;8.548;2022-11-25T12:23:52;11.40;99.90
24638;DHT22;12773;50.162;8.548;2022-11-25T12:29:54;11.30;99.90
24638;DHT22;12773;50.162;8.548;2022-11-25T12:32:52;11.60;99.90
24638;DHT22;12773;50.162;8.548;2022-11-25T12:38:52;11.60;99.90
24638;DHT22;12773;50.162;8.548;2022-11-25T12:41:49;11.60;99.90
24638;DHT22;12773;50.162;8.548;2022-11-25T12:47:44;11.30;99.90
24638;DHT22;12773;50.162;8.548;2022-11-25T13:09:18;10.90;99.90
24638;DHT22;12773;50.162;8.548;2022-11-25T13:12:06;10.80;99.90
24638;DHT22;12773;50.162;8.548;2022-11-25T13:18:02;11.00;99.90
24638;DHT22;12773;50.162;8.548;2022-11-25T13:20:56;11.00;99.90
24638;DHT22;12773;50.162;8.548;2022-11-25T13:23:48;11.20;99.90
24638;DHT22;12773;50.162;8.548;2022-11-25T13:26:45;11.50;99.90
24638;DHT22;12773;50.162;8.548;2022-11-25T13:32:30;11.50;99.90
24638;DHT22;12773;50.162;8.548;2022-11-25T13:38:35;11.40;99.90
24638;DHT22;12773;50.162;8.548;2022-11-25T13:41:39;11.50;99.90
24638;DHT22;12773;50.162;8.548;2022-11-25T13:44:33;11.60;99.90
24638;DHT22;12773;50.162;8.548;2022-11-25T13:47:40;11.60;99.90
24638;DHT22;12773;50.162;8.548;2022-11-25T13:50:25;11.70;99.90
24638;DHT22;12773;50.162;8.548;2022-11-25T13:53:23;11.70;99.90
24638;DHT22;12773;50.162;8.548;2022-11-25T13:56:36;11.80;99.90
24638;DHT22;12773;50.162;8.548;2022-11-25T14:08:41;11.60;99.90
24638;DHT22;12773;50.162;8.548;2022-11-25T14:15:02;11.40;99.90
24638;DHT22;12773;50.162;8.548;2022-11-25T14:27:14;11.50;99.90
24638;DHT22;12773;50.162;8.548;2022-11-25T14:30:07;11.70;99.90
24638;DHT22;12773;50.162;8.548;2022-11-25T14:33:04;11.60;99.90
24638;DHT22;12773;50.162;8.548;2022-11-25T14:35:54;11.60;99.90
24638;DHT22;12773;50.162;8.548;2022-11-25T14:38:57;11.60;99.90
24638;DHT22;12773;50.162;8.548;2022-11-25T14:41:44;11.70;99.90
24638;DHT22;12773;50.162;8.548;2022-11-25T14:44:41;11.70;99.90
24638;DHT22;12773;50.162;8.548;2022-11-25T14:47:32;11.70;99.90
24638;DHT22;12773;50.162;8.548;2022-11-25T14:50:22;11.60;99.90
24638;DHT22;12773;50.162;8.548;2022-11-25T14:53:11;11.60;99.90
24638;DHT22;12773;50.162;8.548;2022-11-25T14:56:00;11.50;99.90
24638;DHT22;12773;50.162;8.548;2022-11-25T14:58:52;11.40;99.90
24638;DHT22;12773;50.162;8.548;2022-11-25T15:01:51;11.40;99.90
24638;DHT22;12773;50.162;8.548;2022-11-25T15:04:40;11.50;99.90
24638;DHT22;12773;50.162;8.548;2022-11-25T15:07:28;11.40;99.90
24638;DHT22;12773;50.162;8.548;2022-11-25T15:10:35;11.40;99.90
24638;DHT22;12773;50.162;8.548;2022-11-25T15:13:28;11.40;99.90
24638;DHT22;12773;50.162;8.548;2022-11-25T15:16:20;11.30;99.90
24638;DHT22;12773;50.162;8.548;2022-11-25T15:19:20;11.40;99.90
24638;DHT22;12773;50.162;8.548;2022-11-25T15:22:10;11.30;99.90
24638;DHT22;12773;50.162;8.548;2022-11-25T15:25:08;11.10;99.90
24638;DHT22;12773;50.162;8.548;2022-11-25T15:27:56;11.00;99.90
24638;DHT22;12773;50.162;8.548;2022-11-25T15:31:00;11.00;99.90
24638;DHT22;12773;50.162;8.548;2022-11-25T15:33:43;10.80;99.90
24638;DHT22;12773;50.162;8.548;2022-11-25T15:36:35;10.70;99.90
24638;DHT22;12773;50.162;8.548;2022-11-25T15:39:24;10.50;99.90
24638;DHT22;12773;50.162;8.548;2022-11-25T15:42:18;10.50;99.90
24638;DHT22;12773;50.162;8.548;2022-11-25T15:45:09;10.50;99.90
24638;DHT22;12773;50.162;8.548;2022-11-25T15:47:58;10.30;99.90
24638;DHT22;12773;50.162;8.548;2022-11-25T15:50:46;10.30;99.90
24638;DHT22;12773;50.162;8.548;2022-11-25T15:53:35;10.20;99.90
24638;DHT22;12773;50.162;8.548;2022-11-25T15:56:25;10.20;99.90
24638;DHT22;12773;50.162;8.548;2022-11-25T15:59:38;10.20;99.90
24638;DHT22;12773;50.162;8.548;2022-11-25T16:02:35;10.30;99.90
24638;DHT22;12773;50.162;8.548;2022-11-25T16:05:26;10.40;99.90
24638;DHT22;12773;50.162;8.548;2022-11-25T16:08:23;10.50;99.90
24638;DHT22;12773;50.162;8.548;2022-11-25T16:11:13;10.60;99.90
24638;DHT22;12773;50.162;8.548;2022-11-25T16:14:24;10.60;99.90
24638;DHT22;12773;50.162;8.548;2022-11-25T16:17:16;10.60;99.90
24638;DHT22;12773;50.162;8.548;2022-11-25T16:20:21;10.70;99.90
24638;DHT22;12773;50.162;8.548;2022-11-25T16:23:10;10.70;99.90
24638;DHT22;12773;50.162;8.548;2022-11-25T16:26:01;10.70;99.90
24638;DHT22;12773;50.162;8.548;2022-11-25T16:28:56;10.70;99.90
24638;DHT22;12773;50.162;8.548;2022-11-25T16:31:46;10.70;99.90
24638;DHT22;12773;50.162;8.548;2022-11-25T16:34:34;10.80;99.90
24638;DHT22;12773;50.162;8.548;2022-11-25T16:37:24;10.70;99.90
24638;DHT22;12773;50.162;8.548;2022-11-25T16:40:13;10.70;99.90
24638;DHT22;12773;50.162;8.548;2022-11-25T16:43:00;10.70;99.90
24638;DHT22;12773;50.162;8.548;2022-11-25T16:45:49;10.70;99.90
24638;DHT22;12773;50.162;8.548;2022-11-25T16:48:39;10.60;99.90
24638;DHT22;12773;50.162;8.548;2022-11-25T16:51:27;10.60;99.90
24638;DHT22;12773;50.162;8.548;2022-11-25T16:54:15;10.70;99.90
24638;DHT22;12773;50.162;8.548;2022-11-25T16:57:04;10.70;99.90
24638;DHT22;12773;50.162;8.548;2022-11-25T16:59:52;10.70;99.90
24638;DHT22;12773;50.162;8.548;2022-11-25T17:02:43;10.70;99.90
24638;DHT22;12773;50.162;8.548;2022-11-25T17:05:30;10.70;99.90
24638;DHT22;12773;50.162;8.548;2022-11-25T17:08:18;10.60;99.90
24638;DHT22;12773;50.162;8.548;2022-11-25T17:11:05;10.60;99.90
24638;DHT22;12773;50.162;8.548;2022-11-25T17:13:53;10.50;99.90
24638;DHT22;12773;50.162;8.548;2022-11-25T17:16:42;10.50;99.90
24638;DHT22;12773;50.162;8.548;2022-11-25T17:19:29;10.50;99.90
24638;DHT22;12773;50.162;8.548;2022-11-25T17:22:20;10.40;99.90
24638;DHT22;12773;50.162;8.548;2022-11-25T17:25:11;10.40;99.90
24638;DHT22;12773;50.162;8.548;2022-11-25T17:27:59;10.30;99.90
24638;DHT22;12773;50.162;8.548;2022-11-25T17:30:47;10.30;99.90
24638;DHT22;12773;50.162;8.548;2022-11-25T17:33:35;10.20;99.90
24638;DHT22;12773;50.162;8.548;2022-11-25T17:36:23;10.00;99.90
24638;DHT22;12773;50.162;8.548;2022-11-25T17:39:12;10.00;99.90
24638;DHT22;12773;50.162;8.548;2022-11-25T17:42:00;9.80;99.90
24638;DHT22;12773;50.162;8.548;2022-11-25T17:44:49;9.70;99.90
24638;DHT22;12773;50.162;8.548;2022-11-25T17:47:38;9.50;99.90
24638;DHT22;12773;50.162;8.548;2022-11-25T17:50:25;9.40;99.90
24638;DHT22;12773;50.162;8.548;2022-11-25T17:53:12;9.30;99.90
24638;DHT22;12773;50.162;8.548;2022-11-25T17:56:00;9.20;99.90
24638;DHT22;12773;50.162;8.548;2022-11-25T17:58:47;9.10;99.90
24638;DHT22;12773;50.162;8.548;2022-11-25T18:01:34;9.00;99.90
24638;DHT22;12773;50.162;8.548;2022-11-25T18:04:25;9.00;99.90
24638;DHT22;12773;50.162;8.548;2022-11-25T18:07:13;9.20;99.90
24638;DHT22;12773;50.162;8.548;2022-11-25T18:10:00;9.30;99.90
24638;DHT22;12773;50.162;8.548;2022-11-25T18:12:50;9.40;99.90
24638;DHT22;12773;50.162;8.548;2022-11-25T18:15:40;9.40;99.90
24638;DHT22;12773;50.162;8.548;2022-11-25T18:18:29;9.40;99.90
24638;DHT22;12773;50.162;8.548;2022-11-25T18:21:16;9.40;99.90
24638;DHT22;12773;50.162;8.548;2022-11-25T18:24:05;9.40;99.90
24638;DHT22;12773;50.162;8.548;2022-11-25T18:26:53;9.60;99.90
24638;DHT22;12773;50.162;8.548;2022-11-25T18:29:41;9.70;99.90
24638;DHT22;12773;50.162;8.548;2022-11-25T18:32:28;9.80;99.90
24638;DHT22;12773;50.162;8.548;2022-11-25T18:35:21;9.90;99.90
24638;DHT22;12773;50.162;8.548;2022-11-25T18:38:10;10.00;99.90
24638;DHT22;12773;50.162;8.548;2022-11-25T18:40:58;10.10;99.90
24638;DHT22;12773;50.162;8.548;2022-11-25T18:43:47;10.10;99.90
24638;DHT22;12773;50.162;8.548;2022-11-25T18:46:37;10.10;99.90
24638;DHT22;12773;50.162;8.548;2022-11-25T18:49:25;10.10;99.90
24638;DHT22;12773;50.162;8.548;2022-11-25T18:52:12;10.20;99.90
24638;DHT22;12773;50.162;8.548;2022-11-25T18:55:00;10.20;99.90
24638;DHT22;12773;50.162;8.548;2022-11-25T18:57:49;10.20;99.90
24638;DHT22;12773;50.162;8.548;2022-11-25T19:00:40;10.20;99.90
24638;DHT22;12773;50.162;8.548;2022-11-25T19:03:28;10.20;99.90
24638;DHT22;12773;50.162;8.548;2022-11-25T19:06:16;10.20;99.90
24638;DHT22;12773;50.162;8.548;2022-11-25T19:09:03;10.20;99.90
24638;DHT22;12773;50.162;8.548;2022-11-25T19:11:53;10.20;99.90
24638;DHT22;12773;50.162;8.548;2022-11-25T19:14:41;10.30;99.90
24638;DHT22;12773;50.162;8.548;2022-11-25T19:17:29;10.10;99.90
24638;DHT22;12773;50.162;8.548;2022-11-25T19:20:18;10.10;99.90
24638;DHT22;12773;50.162;8.548;2022-11-25T19:23:18;10.20;99.90
24638;DHT22;12773;50.162;8.548;2022-11-25T19:26:29;10.20;99.90
24638;DHT22;12773;50.162;8.548;2022-11-25T19:29:30;10.40;99.90
24638;DHT22;12773;50.162;8.548;2022-11-25T19:32:20;10.30;99.90
24638;DHT22;12773;50.162;8.548;2022-11-25T19:35:13;10.30;99.90
24638;DHT22;12773;50.162;8.548;2022-11-25T19:38:01;10.30;99.90
24638;DHT22;12773;50.162;8.548;2022-11-25T19:40:52;10.40;99.90
24638;DHT22;12773;50.162;8.548;2022-11-25T19:43:40;10.50;99.90
24638;DHT22;12773;50.162;8.548;2022-11-25T19:46:29;10.50;99.90